createdAt,value
2022-08-01T00:00:34.498Z,3.40
2022-08-01T00:05:48.215Z,3.20
2022-08-01T00:10:55.381Z,4.10
2022-08-01T00:16:02.408Z,3.30
2022-08-01T00:21:10.057Z,3.90
2022-08-01T00:26:17.431Z,3.90
2022-08-01T00:31:24.444Z,3.80
2022-08-01T00:36:31.779Z,3.50
2022-08-01T00:41:38.792Z,3.60
2022-08-01T00:46:46.108Z,3.90
2022-08-01T00:51:53.276Z,3.90
2022-08-01T00:57:01.092Z,3.60
2022-08-01T01:02:14.759Z,3.50
2022-08-01T01:07:31.562Z,4.00
2022-08-01T01:12:48.242Z,3.80
2022-08-01T01:18:00.417Z,4.00
2022-08-01T01:23:23.931Z,4.20
2022-08-01T01:28:43.853Z,4.20
2022-08-01T01:33:53.732Z,3.80
2022-08-01T01:39:01.457Z,4.00
2022-08-01T01:44:10.634Z,3.70
2022-08-01T01:49:18.691Z,3.70
2022-08-01T01:54:30.196Z,4.20
2022-08-01T01:59:40.587Z,4.20
2022-08-01T02:04:50.368Z,4.50
2022-08-01T02:09:59.484Z,3.80
2022-08-01T02:15:10.425Z,4.60
2022-08-01T02:20:18.651Z,4.10
2022-08-01T02:25:29.623Z,4.10
2022-08-01T02:36:31.611Z,4.40
2022-08-01T02:41:21.562Z,4.70
2022-08-01T02:46:36.114Z,4.70
2022-08-01T02:51:46.770Z,4.50
2022-08-01T02:56:55.802Z,4.90
2022-08-01T03:02:06.732Z,5.10
2022-08-01T03:07:19.329Z,4.90
2022-08-01T03:12:32.058Z,5.10
2022-08-01T03:17:43.165Z,4.60
2022-08-01T03:22:53.886Z,5.20
2022-08-01T03:28:04.821Z,4.80
2022-08-01T03:33:14.514Z,6.00
2022-08-01T03:38:25.270Z,5.20
2022-08-01T03:43:38.154Z,4.80
2022-08-01T03:48:49.620Z,5.80
2022-08-01T03:53:58.334Z,5.00
2022-08-01T03:59:06.370Z,5.80
2022-08-01T04:04:14.179Z,4.60
2022-08-01T04:09:21.935Z,4.30
2022-08-01T04:14:29.149Z,4.90
2022-08-01T04:19:36.349Z,4.80
2022-08-01T04:24:54.638Z,3.80
2022-08-01T04:30:06.196Z,4.60
2022-08-01T04:35:23.209Z,4.70
2022-08-01T04:40:47.702Z,4.40
2022-08-01T04:45:56.850Z,4.40
2022-08-01T04:51:04.182Z,5.70
2022-08-01T04:56:14.310Z,4.20
2022-08-01T05:01:21.647Z,3.80
2022-08-01T05:06:28.849Z,4.10
2022-08-01T05:11:36.083Z,5.10
2022-08-01T05:16:43.987Z,5.00
2022-08-01T05:21:51.159Z,4.30
2022-08-01T05:26:59.169Z,3.90
2022-08-01T05:32:08.026Z,5.00
2022-08-01T05:37:15.698Z,4.30
2022-08-01T05:42:23.514Z,4.60
2022-08-01T05:47:30.856Z,5.00
2022-08-01T05:52:37.981Z,5.00
2022-08-01T05:57:45.145Z,4.20
2022-08-01T06:02:52.219Z,4.30
2022-08-01T06:07:59.869Z,4.20
2022-08-01T06:13:06.891Z,4.50
2022-08-01T06:18:13.982Z,4.50
2022-08-01T06:23:32.702Z,4.60
2022-08-01T06:28:46.847Z,4.30
2022-08-01T06:33:55.148Z,3.70
2022-08-01T06:39:02.306Z,3.60
2022-08-01T06:44:10.039Z,4.20
2022-08-01T06:49:17.302Z,4.80
2022-08-01T06:54:24.856Z,3.30
2022-08-01T06:59:32.958Z,4.50
2022-08-01T07:04:41.135Z,4.00
2022-08-01T07:09:48.396Z,4.20
2022-08-01T07:14:55.985Z,4.40
2022-08-01T07:20:03.721Z,4.10
2022-08-01T07:25:13.319Z,4.10
2022-08-01T07:30:20.963Z,3.90
2022-08-01T07:35:28.353Z,4.20
2022-08-01T07:40:35.818Z,3.50
2022-08-01T07:45:46.467Z,3.60
2022-08-01T07:50:54.573Z,3.60
2022-08-01T07:56:03.735Z,3.20
2022-08-01T08:01:10.846Z,3.00
2022-08-01T08:06:18.009Z,2.90
2022-08-01T08:11:25.236Z,3.10
2022-08-01T08:16:38.448Z,3.50
2022-08-01T08:21:49.068Z,3.20
2022-08-01T08:26:57.869Z,3.20
2022-08-01T08:32:05.515Z,3.50
2022-08-01T08:37:13.925Z,3.20
2022-08-01T08:42:22.958Z,3.00
2022-08-01T08:47:34.578Z,3.40
2022-08-01T08:52:42.426Z,3.30
2022-08-01T08:57:49.966Z,3.20
2022-08-01T09:03:00.763Z,4.00
2022-08-01T09:08:10.437Z,3.30
2022-08-01T09:13:17.871Z,3.10
2022-08-01T09:18:35.087Z,3.00
2022-08-01T09:23:54.515Z,2.90
2022-08-01T09:29:05.601Z,2.70
2022-08-01T09:34:13.135Z,2.70
2022-08-01T09:39:21.756Z,3.60
2022-08-01T09:44:54.948Z,2.40
2022-08-01T09:50:10.180Z,2.40
2022-08-01T09:55:25.107Z,2.50
2022-08-01T10:00:44.786Z,2.40
2022-08-01T10:05:54.359Z,2.80
2022-08-01T10:11:13.209Z,2.50
2022-08-01T10:16:23.769Z,2.60
2022-08-01T10:21:56.922Z,2.90
2022-08-01T10:27:09.199Z,2.90
2022-08-01T10:32:23.457Z,3.10
2022-08-01T10:37:31.675Z,2.90
2022-08-01T10:42:38.974Z,2.30
2022-08-01T10:47:53.838Z,2.80
2022-08-01T10:53:23.802Z,2.90
2022-08-01T10:58:39.842Z,2.20
2022-08-01T11:04:04.211Z,2.00
2022-08-01T11:09:36.909Z,2.10
2022-08-01T11:15:29.096Z,1.90
2022-08-01T11:20:41.766Z,1.90
2022-08-01T11:26:17.475Z,2.30
2022-08-01T11:31:37.833Z,1.70
2022-08-01T11:37:01.718Z,2.00
2022-08-01T11:42:23.666Z,2.30
2022-08-01T11:47:51.587Z,2.10
2022-08-01T11:53:03.153Z,1.80
2022-08-01T11:58:35.369Z,1.70
2022-08-01T12:03:59.229Z,2.20
2022-08-01T12:09:21.145Z,2.00
2022-08-01T12:14:28.265Z,1.80
2022-08-01T12:19:37.591Z,2.00
2022-08-01T12:24:45.758Z,1.70
2022-08-01T12:29:53.409Z,1.40
2022-08-01T12:35:05.763Z,2.60
2022-08-01T12:40:20.075Z,1.40
2022-08-01T12:45:29.298Z,1.60
2022-08-01T12:50:38.742Z,1.30
2022-08-01T12:55:58.020Z,1.40
2022-08-01T13:01:14.459Z,1.60
2022-08-01T13:06:21.685Z,2.20
2022-08-01T13:11:30.570Z,2.00
2022-08-01T13:16:57.109Z,2.50
2022-08-01T13:22:05.021Z,2.30
2022-08-01T13:27:26.288Z,2.00
2022-08-01T13:32:33.239Z,1.90
2022-08-01T13:37:40.596Z,1.80
2022-08-01T13:42:47.404Z,1.40
2022-08-01T13:48:03.568Z,1.40
2022-08-01T13:53:20.167Z,1.70
2022-08-01T13:58:27.213Z,1.60
2022-08-01T14:03:34.057Z,1.10
2022-08-01T14:08:40.962Z,1.10
2022-08-01T14:13:53.289Z,0.80
2022-08-01T14:19:00.422Z,1.00
2022-08-01T14:24:09.397Z,1.30
2022-08-01T14:29:16.372Z,0.80
2022-08-01T14:34:23.407Z,0.80
2022-08-01T14:39:32.823Z,1.20
2022-08-01T14:44:39.815Z,1.10
2022-08-01T14:49:56.805Z,1.30
2022-08-01T14:55:04.136Z,1.30
2022-08-01T15:00:14.960Z,1.10
2022-08-01T15:05:22.426Z,0.90
2022-08-01T15:10:30.475Z,0.70
2022-08-01T15:15:37.793Z,0.80
2022-08-01T15:20:44.957Z,1.00
2022-08-01T15:25:52.363Z,0.70
2022-08-01T15:30:59.802Z,1.20
2022-08-01T15:36:07.403Z,1.10
2022-08-01T15:41:19.399Z,0.60
2022-08-01T15:46:26.473Z,0.60
2022-08-01T15:51:34.274Z,0.70
2022-08-01T15:56:41.354Z,0.90
2022-08-01T16:01:50.555Z,0.70
2022-08-01T16:06:58.613Z,1.00
2022-08-01T16:12:05.972Z,0.70
2022-08-01T16:17:13.482Z,0.50
2022-08-01T16:22:22.156Z,0.50
2022-08-01T16:27:31.104Z,0.60
2022-08-01T16:37:50.749Z,0.60
2022-08-01T16:42:58.706Z,0.60
2022-08-01T16:48:10.086Z,0.70
2022-08-01T16:53:22.322Z,0.70
2022-08-01T16:58:30.282Z,0.50
2022-08-01T17:03:51.830Z,0.40
2022-08-01T17:09:02.254Z,0.60
2022-08-01T17:14:13.415Z,0.50
2022-08-01T17:19:21.304Z,0.60
2022-08-01T17:24:40.641Z,0.70
2022-08-01T17:29:48.250Z,0.80
2022-08-01T17:34:55.535Z,1.10
2022-08-01T17:40:06.408Z,1.00
2022-08-01T17:45:29.961Z,1.10
2022-08-01T17:50:46.107Z,1.60
2022-08-01T17:55:57.816Z,1.20
2022-08-01T18:01:05.598Z,1.20
2022-08-01T18:06:15.715Z,1.60
2022-08-01T18:11:22.942Z,1.70
2022-08-01T18:16:32.155Z,1.50
2022-08-01T18:21:42.836Z,1.40
2022-08-01T18:26:52.108Z,1.60
2022-08-01T18:32:31.504Z,1.50
2022-08-01T18:37:54.650Z,1.80
2022-08-01T18:43:05.723Z,1.80
2022-08-01T18:48:18.804Z,2.00
2022-08-01T18:53:27.453Z,1.80
2022-08-01T18:58:36.159Z,1.80
2022-08-01T19:03:44.006Z,2.10
2022-08-01T19:08:55.781Z,1.80
2022-08-01T19:14:06.785Z,1.70
2022-08-01T19:19:15.389Z,1.80
2022-08-01T19:24:34.850Z,1.80
2022-08-01T19:29:43.052Z,2.00
2022-08-01T19:35:00.588Z,2.10
2022-08-01T19:40:27.333Z,1.80
2022-08-01T19:50:45.543Z,2.40
2022-08-01T19:55:54.982Z,2.30
2022-08-01T20:01:03.184Z,2.50
2022-08-01T20:06:10.495Z,2.20
2022-08-01T20:11:21.745Z,2.00
2022-08-01T20:16:30.136Z,2.10
2022-08-01T20:21:39.001Z,2.10
2022-08-01T20:26:49.952Z,2.30
2022-08-01T20:31:59.230Z,1.90
2022-08-01T20:37:12.549Z,2.00
2022-08-01T20:42:21.847Z,2.60
2022-08-01T20:47:28.998Z,2.40
2022-08-01T20:52:36.849Z,2.40
2022-08-01T20:57:45.929Z,2.40
2022-08-01T21:03:02.804Z,2.00
2022-08-01T21:08:14.671Z,2.50
2022-08-01T21:13:29.516Z,2.40
2022-08-01T21:18:42.086Z,3.00
2022-08-01T21:23:59.963Z,3.40
2022-08-01T21:29:08.822Z,2.80
2022-08-01T21:34:17.739Z,2.90
2022-08-01T21:39:24.923Z,2.80
2022-08-01T21:44:34.297Z,3.20
2022-08-01T21:49:42.348Z,2.70
2022-08-01T21:55:00.516Z,2.90
2022-08-01T22:00:20.957Z,3.60
2022-08-01T22:05:50.467Z,3.10
2022-08-01T22:11:05.351Z,3.60
2022-08-01T22:16:15.680Z,3.30
2022-08-01T22:21:23.143Z,3.30
2022-08-01T22:26:30.622Z,2.90
2022-08-01T22:31:38.619Z,3.10
2022-08-01T22:36:45.821Z,3.20
2022-08-01T22:42:04.465Z,3.70
2022-08-01T22:47:20.291Z,4.00
2022-08-01T22:52:30.899Z,3.50
2022-08-01T22:57:50.155Z,3.60
2022-08-01T23:03:07.130Z,4.30
2022-08-01T23:08:16.071Z,3.50
2022-08-01T23:13:23.784Z,3.50
2022-08-01T23:18:31.748Z,3.70
2022-08-01T23:23:40.939Z,3.80
2022-08-01T23:28:49.201Z,4.30
2022-08-01T23:33:56.198Z,3.60
2022-08-01T23:39:03.300Z,4.20
2022-08-01T23:44:10.336Z,3.90
2022-08-01T23:49:17.322Z,3.80
2022-08-01T23:54:24.567Z,3.60
2022-08-01T23:59:53.541Z,5.10
